createdAt,value
2023-05-10T00:00:45.130Z,12.10
2023-05-10T00:03:34.165Z,12.10
2023-05-10T00:06:23.097Z,11.90
2023-05-10T00:09:12.318Z,11.90
2023-05-10T00:12:01.062Z,11.80
2023-05-10T00:14:51.184Z,11.50
2023-05-10T00:17:40.052Z,11.10
2023-05-10T00:20:29.159Z,10.80
2023-05-10T00:23:17.916Z,10.60
2023-05-10T00:26:07.114Z,10.80
2023-05-10T00:28:55.897Z,10.70
2023-05-10T00:31:46.146Z,10.90
2023-05-10T00:34:34.974Z,11.20
2023-05-10T00:37:23.627Z,11.30
2023-05-10T00:40:13.530Z,11.10
2023-05-10T00:43:04.512Z,10.70
2023-05-10T00:45:53.933Z,10.40
2023-05-10T00:48:44.710Z,10.50
2023-05-10T00:51:34.734Z,10.50
2023-05-10T00:54:23.604Z,10.80
2023-05-10T00:57:13.635Z,10.80
2023-05-10T01:00:04.097Z,10.80
2023-05-10T01:02:53.137Z,10.60
2023-05-10T01:05:43.910Z,10.60
2023-05-10T01:08:32.741Z,10.90
2023-05-10T01:11:21.994Z,10.80
2023-05-10T01:14:10.790Z,10.50
2023-05-10T01:16:59.662Z,10.40
2023-05-10T01:19:48.514Z,10.80
2023-05-10T01:23:02.029Z,10.50
2023-05-10T01:26:14.369Z,10.50
2023-05-10T01:29:39.223Z,10.50
2023-05-10T01:32:37.561Z,10.70
2023-05-10T01:35:34.343Z,10.50
2023-05-10T01:38:32.329Z,10.40
2023-05-10T01:41:30.448Z,10.30
2023-05-10T01:44:37.272Z,10.30
2023-05-10T01:47:33.429Z,10.00
2023-05-10T01:50:29.859Z,9.90
2023-05-10T01:53:22.654Z,9.90
2023-05-10T01:56:13.962Z,10.10
2023-05-10T01:59:07.610Z,10.00
2023-05-10T02:01:59.383Z,10.10
2023-05-10T02:04:49.918Z,10.40
2023-05-10T02:07:40.507Z,10.50
2023-05-10T02:10:31.074Z,10.10
2023-05-10T02:13:21.470Z,10.00
2023-05-10T02:16:11.520Z,9.70
2023-05-10T02:19:03.985Z,9.60
2023-05-10T02:21:53.913Z,9.70
2023-05-10T02:24:44.487Z,9.80
2023-05-10T02:27:33.833Z,9.80
2023-05-10T02:30:24.083Z,9.70
2023-05-10T02:33:14.288Z,9.70
2023-05-10T02:36:04.936Z,9.90
2023-05-10T02:38:55.204Z,9.80
2023-05-10T02:44:38.981Z,9.70
2023-05-10T02:47:27.915Z,9.80
2023-05-10T02:50:17.667Z,10.00
2023-05-10T02:53:12.792Z,9.90
2023-05-10T02:56:08.173Z,9.90
2023-05-10T02:58:58.420Z,10.20
2023-05-10T03:01:47.238Z,10.20
2023-05-10T03:04:36.182Z,9.90
2023-05-10T03:07:25.326Z,10.00
2023-05-10T03:10:14.517Z,9.80
2023-05-10T03:13:12.255Z,9.90
2023-05-10T03:16:10.304Z,9.80
2023-05-10T03:19:08.829Z,9.80
2023-05-10T03:22:01.957Z,10.10
2023-05-10T03:24:58.382Z,10.00
2023-05-10T03:27:50.135Z,10.00
2023-05-10T03:30:41.667Z,10.10
2023-05-10T03:33:34.317Z,10.30
2023-05-10T03:36:23.128Z,10.30
2023-05-10T03:39:12.245Z,10.30
2023-05-10T03:42:01.074Z,10.30
2023-05-10T03:44:51.065Z,10.30
2023-05-10T03:47:41.813Z,10.10
2023-05-10T03:50:32.230Z,10.10
2023-05-10T03:53:21.552Z,10.30
2023-05-10T03:56:11.281Z,10.20
2023-05-10T03:59:00.181Z,10.30
2023-05-10T04:01:48.940Z,10.60
2023-05-10T04:04:37.801Z,10.30
2023-05-10T04:07:28.580Z,10.40
2023-05-10T04:10:18.958Z,10.10
2023-05-10T04:13:08.055Z,9.90
2023-05-10T04:15:56.677Z,9.80
2023-05-10T04:18:45.432Z,9.70
2023-05-10T04:21:34.196Z,10.00
2023-05-10T04:24:24.419Z,9.90
2023-05-10T04:27:13.132Z,10.10
2023-05-10T04:30:02.223Z,10.30
2023-05-10T04:32:51.433Z,10.40
2023-05-10T04:35:41.212Z,10.70
2023-05-10T04:38:29.963Z,10.90
2023-05-10T04:41:20.204Z,11.00
2023-05-10T04:44:08.880Z,10.70
2023-05-10T04:46:57.792Z,10.90
2023-05-10T04:49:46.759Z,10.70
2023-05-10T04:52:35.679Z,11.30
2023-05-10T04:55:24.514Z,11.30
2023-05-10T04:58:14.691Z,11.30
2023-05-10T05:01:08.649Z,11.50
2023-05-10T05:03:57.405Z,11.60
2023-05-10T05:06:46.285Z,11.80
2023-05-10T05:09:35.023Z,11.80
2023-05-10T05:12:23.878Z,12.10
2023-05-10T05:15:14.370Z,12.20
2023-05-10T05:18:03.820Z,12.20
2023-05-10T05:20:52.923Z,12.30
2023-05-10T05:23:41.629Z,12.70
2023-05-10T05:26:30.400Z,12.60
2023-05-10T05:29:19.443Z,12.50
2023-05-10T05:32:09.820Z,12.60
2023-05-10T05:34:58.740Z,12.70
2023-05-10T05:37:47.652Z,12.80
2023-05-10T05:40:36.551Z,12.90
2023-05-10T05:43:26.033Z,12.90
2023-05-10T05:46:14.857Z,13.10
2023-05-10T05:49:05.230Z,13.30
2023-05-10T05:51:54.127Z,14.20
2023-05-10T05:54:43.083Z,15.70
2023-05-10T05:57:32.330Z,16.30
2023-05-10T06:00:22.354Z,16.50
2023-05-10T06:03:11.738Z,18.20
2023-05-10T06:06:02.604Z,19.80
2023-05-10T06:08:51.297Z,19.10
2023-05-10T06:11:40.567Z,17.60
2023-05-10T06:14:29.647Z,16.10
2023-05-10T06:17:19.217Z,15.80
2023-05-10T06:20:09.097Z,15.20
2023-05-10T06:22:59.601Z,15.10
2023-05-10T06:25:48.848Z,15.10
2023-05-10T06:28:39.409Z,15.40
2023-05-10T06:31:28.359Z,16.80
2023-05-10T06:34:17.202Z,18.30
2023-05-10T06:37:06.384Z,18.00
2023-05-10T06:39:56.505Z,16.70
2023-05-10T06:42:46.046Z,15.90
2023-05-10T06:45:34.868Z,15.90
2023-05-10T06:48:24.133Z,15.90
2023-05-10T06:51:12.920Z,15.40
2023-05-10T06:54:02.030Z,15.80
2023-05-10T06:56:52.278Z,16.10
2023-05-10T06:59:41.023Z,16.20
2023-05-10T07:02:30.094Z,16.40
2023-05-10T07:05:19.407Z,16.90
2023-05-10T07:08:09.513Z,16.90
2023-05-10T07:11:02.911Z,17.10
2023-05-10T07:13:53.129Z,17.00
2023-05-10T07:16:42.082Z,17.10
2023-05-10T07:19:33.625Z,17.50
2023-05-10T07:22:22.359Z,17.70
2023-05-10T07:25:11.927Z,17.70
2023-05-10T07:28:00.923Z,18.20
2023-05-10T07:30:51.128Z,18.00
2023-05-10T07:33:39.760Z,18.60
2023-05-10T07:36:28.879Z,18.50
2023-05-10T07:39:26.547Z,18.40
2023-05-10T07:42:15.872Z,18.70
2023-05-10T07:45:05.128Z,19.10
2023-05-10T07:47:55.218Z,19.30
2023-05-10T07:50:44.033Z,19.50
2023-05-10T07:53:32.733Z,19.80
2023-05-10T07:56:28.118Z,20.40
2023-05-10T07:59:18.835Z,20.80
2023-05-10T08:02:08.393Z,21.10
2023-05-10T08:04:58.976Z,21.70
2023-05-10T08:07:47.712Z,21.70
2023-05-10T08:10:36.577Z,21.40
2023-05-10T08:13:25.876Z,21.40
2023-05-10T08:16:14.907Z,21.60
2023-05-10T08:19:04.046Z,21.60
2023-05-10T08:21:56.665Z,22.10
2023-05-10T08:24:45.504Z,21.50
2023-05-10T08:27:34.178Z,21.80
2023-05-10T08:30:23.198Z,21.50
2023-05-10T08:33:12.037Z,22.40
2023-05-10T08:36:00.895Z,22.50
2023-05-10T08:38:53.190Z,23.10
2023-05-10T08:41:42.322Z,23.50
2023-05-10T08:44:32.185Z,22.30
2023-05-10T08:47:21.217Z,22.60
2023-05-10T08:50:10.863Z,22.40
2023-05-10T08:53:03.210Z,22.50
2023-05-10T08:55:53.464Z,22.60
2023-05-10T08:58:42.441Z,22.80
2023-05-10T09:01:33.373Z,23.50
2023-05-10T09:04:23.157Z,23.50
2023-05-10T09:07:13.633Z,23.20
2023-05-10T09:10:02.511Z,23.70
2023-05-10T09:12:52.678Z,23.80
2023-05-10T09:15:41.663Z,24.20
2023-05-10T09:18:30.597Z,24.60
2023-05-10T09:21:22.884Z,24.90
2023-05-10T09:24:11.892Z,24.40
2023-05-10T09:27:01.171Z,24.50
2023-05-10T09:29:55.439Z,25.10
2023-05-10T09:32:46.404Z,24.50
2023-05-10T09:35:35.864Z,25.80
2023-05-10T09:38:24.821Z,25.00
2023-05-10T09:41:19.294Z,25.10
2023-05-10T09:44:10.186Z,26.50
2023-05-10T09:47:00.727Z,26.50
2023-05-10T09:49:52.419Z,26.30
2023-05-10T09:52:49.474Z,27.20
2023-05-10T09:55:43.885Z,29.40
2023-05-10T09:58:32.888Z,28.60
2023-05-10T10:01:21.890Z,29.20
2023-05-10T10:04:12.628Z,29.10
2023-05-10T10:07:03.781Z,27.70
2023-05-10T10:09:53.067Z,28.30
2023-05-10T10:12:44.067Z,29.70
2023-05-10T10:15:34.679Z,29.70
2023-05-10T10:18:28.266Z,31.00
2023-05-10T10:24:08.983Z,32.00
2023-05-10T10:27:05.439Z,30.40
2023-05-10T10:30:03.858Z,31.20
2023-05-10T10:33:24.284Z,32.40
2023-05-10T10:36:19.509Z,32.90
2023-05-10T10:39:12.529Z,31.40
2023-05-10T10:42:03.780Z,33.20
2023-05-10T10:45:12.555Z,35.50
2023-05-10T10:48:23.814Z,34.10
2023-05-10T10:51:13.022Z,34.80
2023-05-10T10:54:11.511Z,34.70
2023-05-10T10:57:24.026Z,35.80
2023-05-10T11:00:30.196Z,34.20
2023-05-10T11:03:20.601Z,35.60
2023-05-10T11:06:10.102Z,36.60
2023-05-10T11:08:59.150Z,35.40
2023-05-10T11:11:56.436Z,35.10
2023-05-10T11:14:45.431Z,34.60
2023-05-10T11:17:36.992Z,34.20
2023-05-10T11:20:34.227Z,34.10
2023-05-10T11:23:23.106Z,35.70
2023-05-10T11:26:12.377Z,39.30
2023-05-10T11:29:04.236Z,37.50
2023-05-10T11:31:53.676Z,34.90
2023-05-10T11:34:42.533Z,36.60
2023-05-10T11:37:35.274Z,39.70
2023-05-10T11:40:25.600Z,40.60
2023-05-10T11:43:14.641Z,41.40
2023-05-10T11:46:05.171Z,37.50
2023-05-10T11:49:03.019Z,40.10
2023-05-10T11:51:51.890Z,42.10
2023-05-10T11:54:46.955Z,42.30
2023-05-10T11:57:39.445Z,42.90
2023-05-10T12:00:28.596Z,41.20
2023-05-10T12:03:19.302Z,39.50
2023-05-10T12:06:09.778Z,38.30
2023-05-10T12:11:48.109Z,39.50
2023-05-10T12:14:37.094Z,38.10
2023-05-10T12:17:30.335Z,41.40
2023-05-10T12:20:22.192Z,43.70
2023-05-10T12:23:12.121Z,42.10
2023-05-10T12:26:05.194Z,41.70
2023-05-10T12:31:53.385Z,36.70
2023-05-10T12:34:42.195Z,28.50
2023-05-10T12:37:37.108Z,26.50
2023-05-10T12:40:25.876Z,26.50
2023-05-10T12:43:14.777Z,25.00
2023-05-10T12:46:08.046Z,24.20
2023-05-10T12:49:07.814Z,22.90
2023-05-10T12:51:57.706Z,23.00
2023-05-10T12:54:48.642Z,22.80
2023-05-10T12:57:37.496Z,21.90
2023-05-10T13:00:26.906Z,21.50
2023-05-10T13:03:16.809Z,21.30
2023-05-10T13:06:06.198Z,21.00
2023-05-10T13:08:55.031Z,21.10
2023-05-10T13:11:46.373Z,21.60
2023-05-10T13:14:36.124Z,21.20
2023-05-10T13:17:25.967Z,20.90
2023-05-10T13:20:15.872Z,21.00
2023-05-10T13:23:05.614Z,20.20
2023-05-10T13:25:54.766Z,20.10
2023-05-10T13:28:47.104Z,20.10
2023-05-10T13:31:37.154Z,20.50
2023-05-10T13:34:26.610Z,20.60
2023-05-10T13:37:15.833Z,21.10
2023-05-10T13:40:05.298Z,21.00
2023-05-10T13:42:54.201Z,21.00
2023-05-10T13:45:45.152Z,20.70
2023-05-10T13:48:34.862Z,20.30
2023-05-10T13:51:25.696Z,20.90
2023-05-10T13:54:14.699Z,20.60
2023-05-10T13:57:03.767Z,20.50
2023-05-10T13:59:54.033Z,20.30
2023-05-10T14:02:45.658Z,20.10
2023-05-10T14:05:34.666Z,20.10
2023-05-10T14:08:24.029Z,20.00
2023-05-10T14:11:13.095Z,19.90
2023-05-10T14:14:02.230Z,20.00
2023-05-10T14:16:51.795Z,20.00
2023-05-10T14:19:42.312Z,19.90
2023-05-10T14:22:31.377Z,20.00
2023-05-10T14:25:20.903Z,19.70
2023-05-10T14:28:09.994Z,19.40
2023-05-10T14:30:58.974Z,19.50
2023-05-10T14:33:47.911Z,19.60
2023-05-10T14:36:38.678Z,19.30
2023-05-10T14:39:31.003Z,19.10
2023-05-10T14:42:20.507Z,19.20
2023-05-10T14:45:11.012Z,19.20
2023-05-10T14:48:00.931Z,19.20
2023-05-10T14:50:50.868Z,19.30
2023-05-10T14:53:42.028Z,19.30
2023-05-10T14:56:32.266Z,19.30
2023-05-10T14:59:21.309Z,19.40
2023-05-10T15:02:11.731Z,19.40
2023-05-10T15:05:01.880Z,19.10
2023-05-10T15:07:51.578Z,19.00
2023-05-10T15:10:41.903Z,18.80
2023-05-10T15:13:32.591Z,18.80
2023-05-10T15:16:22.562Z,18.90
2023-05-10T15:19:13.490Z,19.10
2023-05-10T15:22:02.494Z,19.10
2023-05-10T15:24:51.495Z,18.90
2023-05-10T15:27:41.939Z,18.70
2023-05-10T15:30:31.218Z,18.80
2023-05-10T15:33:20.127Z,18.70
2023-05-10T15:36:09.397Z,19.00
2023-05-10T15:38:58.619Z,18.90
2023-05-10T15:41:48.208Z,19.00
2023-05-10T15:44:39.575Z,18.90
2023-05-10T15:47:29.885Z,18.80
2023-05-10T15:50:19.321Z,19.00
2023-05-10T15:53:08.575Z,18.80
2023-05-10T15:55:59.072Z,18.80
2023-05-10T15:58:48.040Z,18.60
2023-05-10T16:01:38.831Z,18.60
2023-05-10T16:04:27.998Z,18.40
2023-05-10T16:07:17.002Z,18.40
2023-05-10T16:10:08.832Z,18.30
2023-05-10T16:12:59.344Z,18.20
2023-05-10T16:15:48.814Z,18.10
2023-05-10T16:18:39.657Z,18.30
2023-05-10T16:21:29.201Z,18.20
2023-05-10T16:24:20.714Z,18.30
2023-05-10T16:27:11.208Z,17.90
2023-05-10T16:30:02.108Z,17.90
2023-05-10T16:32:52.034Z,17.90
2023-05-10T16:35:42.898Z,18.10
2023-05-10T16:38:33.211Z,18.10
2023-05-10T16:41:23.554Z,18.10
2023-05-10T16:44:13.079Z,18.20
2023-05-10T16:47:03.626Z,18.20
2023-05-10T16:49:52.888Z,18.10
2023-05-10T16:52:43.447Z,18.10
2023-05-10T16:55:33.530Z,17.90
2023-05-10T16:58:23.879Z,17.80
2023-05-10T17:01:12.972Z,17.90
2023-05-10T17:04:02.520Z,17.70
2023-05-10T17:06:52.033Z,17.80
2023-05-10T17:09:43.543Z,17.70
2023-05-10T17:12:32.541Z,17.70
2023-05-10T17:15:21.957Z,17.60
2023-05-10T17:18:11.850Z,17.60
2023-05-10T17:21:01.185Z,17.70
2023-05-10T17:23:53.044Z,17.80
2023-05-10T17:26:44.651Z,17.90
2023-05-10T17:29:33.927Z,17.60
2023-05-10T17:32:22.960Z,17.60
2023-05-10T17:35:12.119Z,17.70
2023-05-10T17:38:01.474Z,17.50
2023-05-10T17:40:50.596Z,17.50
2023-05-10T17:43:41.068Z,17.50
2023-05-10T17:46:34.150Z,17.40
2023-05-10T17:49:23.147Z,17.20
2023-05-10T17:52:12.974Z,17.10
2023-05-10T17:55:03.399Z,16.90
2023-05-10T17:57:52.674Z,16.90
2023-05-10T18:00:43.795Z,16.80
2023-05-10T18:03:33.972Z,16.70
2023-05-10T18:06:23.727Z,16.50
2023-05-10T18:09:12.877Z,16.70
2023-05-10T18:12:03.667Z,16.60
2023-05-10T18:14:52.831Z,16.80
2023-05-10T18:17:44.162Z,16.90
2023-05-10T18:20:45.107Z,16.80
2023-05-10T18:23:34.938Z,16.60
2023-05-10T18:26:23.867Z,16.50
2023-05-10T18:29:13.930Z,16.60
2023-05-10T18:32:03.329Z,16.60
2023-05-10T18:34:56.745Z,16.60
2023-05-10T18:37:46.952Z,16.80
2023-05-10T18:40:36.037Z,16.80
2023-05-10T18:43:26.938Z,16.70
2023-05-10T18:46:16.489Z,16.80
2023-05-10T18:49:06.655Z,16.70
2023-05-10T18:51:58.915Z,16.70
2023-05-10T18:54:48.012Z,16.70
2023-05-10T18:57:41.870Z,16.40
2023-05-10T19:00:32.577Z,16.30
2023-05-10T19:03:22.619Z,16.40
2023-05-10T19:06:13.311Z,16.30
2023-05-10T19:09:14.655Z,16.10
2023-05-10T19:12:05.911Z,16.10
2023-05-10T19:14:56.014Z,16.00
2023-05-10T19:17:51.899Z,15.80
2023-05-10T19:20:42.677Z,15.90
2023-05-10T19:23:34.551Z,16.00
2023-05-10T19:26:27.713Z,15.70
2023-05-10T19:29:16.961Z,15.60
2023-05-10T19:32:06.406Z,15.80
2023-05-10T19:34:55.472Z,15.50
2023-05-10T19:37:46.238Z,15.20
2023-05-10T19:40:35.133Z,15.30
2023-05-10T19:43:25.740Z,15.10
2023-05-10T19:46:14.525Z,15.30
2023-05-10T19:49:03.751Z,15.10
2023-05-10T19:51:52.826Z,15.10
2023-05-10T19:54:41.713Z,15.00
2023-05-10T19:57:30.693Z,15.10
2023-05-10T20:00:21.284Z,15.00
2023-05-10T20:03:10.225Z,15.10
2023-05-10T20:05:59.236Z,15.00
2023-05-10T20:08:48.184Z,14.70
2023-05-10T20:11:37.205Z,14.70
2023-05-10T20:14:26.315Z,14.80
2023-05-10T20:17:16.703Z,14.80
2023-05-10T20:20:06.268Z,14.70
2023-05-10T20:22:55.230Z,14.90
2023-05-10T20:25:44.048Z,14.60
2023-05-10T20:28:33.435Z,14.50
2023-05-10T20:31:22.251Z,14.40
2023-05-10T20:34:13.416Z,14.30
2023-05-10T20:37:02.477Z,14.30
2023-05-10T20:39:51.731Z,14.10
2023-05-10T20:42:40.835Z,14.10
2023-05-10T20:45:29.854Z,14.10
2023-05-10T20:48:19.883Z,14.00
2023-05-10T20:51:10.383Z,13.90
2023-05-10T20:54:02.199Z,13.90
2023-05-10T20:56:51.209Z,13.90
2023-05-10T20:59:40.274Z,13.80
2023-05-10T21:02:29.319Z,14.20
2023-05-10T21:05:18.958Z,14.10
2023-05-10T21:08:09.264Z,14.10
2023-05-10T21:10:58.309Z,13.80
2023-05-10T21:13:47.534Z,13.80
2023-05-10T21:16:36.471Z,13.60
2023-05-10T21:19:25.556Z,13.50
2023-05-10T21:22:14.616Z,13.60
2023-05-10T21:25:05.220Z,13.50
2023-05-10T21:27:54.379Z,13.40
2023-05-10T21:30:43.330Z,13.50
2023-05-10T21:33:32.350Z,13.40
2023-05-10T21:36:21.281Z,13.50
2023-05-10T21:39:10.336Z,13.50
2023-05-10T21:42:01.016Z,13.40
2023-05-10T21:44:50.085Z,13.40
2023-05-10T21:47:38.976Z,13.30
2023-05-10T21:50:28.686Z,13.50
2023-05-10T21:53:17.936Z,13.30
2023-05-10T21:56:07.321Z,13.50
2023-05-10T21:58:58.311Z,13.30
2023-05-10T22:01:47.587Z,13.40
2023-05-10T22:04:36.431Z,13.10
2023-05-10T22:07:25.222Z,13.10
2023-05-10T22:10:13.992Z,13.20
2023-05-10T22:13:02.709Z,12.90
2023-05-10T22:15:52.870Z,13.00
2023-05-10T22:18:41.747Z,13.20
2023-05-10T22:21:31.000Z,13.10
2023-05-10T22:24:19.950Z,13.00
2023-05-10T22:27:08.817Z,13.20
2023-05-10T22:29:58.192Z,13.10
2023-05-10T22:32:48.890Z,13.00
2023-05-10T22:35:37.745Z,13.00
2023-05-10T22:38:26.488Z,12.80
2023-05-10T22:41:15.244Z,12.90
2023-05-10T22:44:05.034Z,13.00
2023-05-10T22:46:53.801Z,13.00
2023-05-10T22:49:44.160Z,12.70
2023-05-10T22:52:33.370Z,12.70
2023-05-10T22:55:22.197Z,12.80
2023-05-10T22:58:11.032Z,12.80
2023-05-10T23:00:59.776Z,12.80
2023-05-10T23:03:48.511Z,12.70
2023-05-10T23:06:39.639Z,12.70
2023-05-10T23:09:28.421Z,12.70
2023-05-10T23:12:17.116Z,12.80
2023-05-10T23:15:06.846Z,12.70
2023-05-10T23:17:55.631Z,12.60
2023-05-10T23:20:44.792Z,12.50
2023-05-10T23:23:35.473Z,12.40
2023-05-10T23:26:24.227Z,12.50
2023-05-10T23:29:12.967Z,12.40
2023-05-10T23:32:02.062Z,12.30
2023-05-10T23:34:50.925Z,12.30
2023-05-10T23:37:39.748Z,12.10
2023-05-10T23:40:29.975Z,12.40
2023-05-10T23:43:19.911Z,12.30
2023-05-10T23:46:08.739Z,12.30
2023-05-10T23:48:57.480Z,12.40
2023-05-10T23:51:46.234Z,12.40
2023-05-10T23:54:35.004Z,12.10
2023-05-10T23:57:25.168Z,12.10
